createdAt,value
2018-12-04T00:00:56.348Z,7.30
2018-12-04T00:03:24.972Z,6.90
2018-12-04T00:05:53.341Z,6.43
2018-12-04T00:08:21.765Z,6.57
2018-12-04T00:10:50.335Z,6.13
2018-12-04T00:13:18.819Z,6.60
2018-12-04T00:15:47.193Z,5.97
2018-12-04T00:18:15.597Z,6.60
2018-12-04T00:20:43.965Z,6.17
2018-12-04T00:23:12.380Z,5.90
2018-12-04T00:25:40.925Z,5.70
2018-12-04T00:28:09.294Z,6.03
2018-12-04T00:30:37.681Z,6.40
2018-12-04T00:33:06.086Z,6.33
2018-12-04T00:35:34.949Z,6.73
2018-12-04T00:38:03.409Z,7.07
2018-12-04T00:40:32.228Z,7.20
2018-12-04T00:43:00.633Z,5.97
2018-12-04T00:45:29.005Z,6.97
2018-12-04T00:47:57.516Z,7.20
2018-12-04T00:50:25.937Z,7.43
2018-12-04T00:52:54.317Z,7.37
2018-12-04T00:55:22.820Z,8.30
2018-12-04T00:57:51.208Z,7.47
2018-12-04T01:00:19.608Z,7.57
2018-12-04T01:02:48.052Z,7.50
2018-12-04T01:05:16.472Z,8.33
2018-12-04T01:07:44.870Z,7.40
2018-12-04T01:10:13.277Z,7.37
2018-12-04T01:12:42.025Z,7.10
2018-12-04T01:15:10.517Z,6.20
2018-12-04T01:17:38.951Z,6.83
2018-12-04T01:20:07.619Z,7.50
2018-12-04T01:22:35.980Z,6.90
2018-12-04T01:25:04.756Z,6.73
2018-12-04T01:27:33.448Z,6.33
2018-12-04T01:30:01.843Z,6.17
2018-12-04T01:32:30.233Z,5.60
2018-12-04T01:34:58.597Z,5.97
2018-12-04T01:37:26.984Z,6.27
2018-12-04T01:39:55.370Z,4.93
2018-12-04T01:42:23.743Z,5.50
2018-12-04T01:44:52.153Z,5.13
2018-12-04T01:47:20.612Z,5.00
2018-12-04T01:49:48.980Z,5.37
2018-12-04T01:52:17.351Z,5.27
2018-12-04T01:54:45.753Z,5.40
2018-12-04T01:57:14.256Z,5.50
2018-12-04T01:59:42.652Z,5.27
2018-12-04T02:02:11.076Z,5.83
2018-12-04T02:04:39.463Z,4.60
2018-12-04T02:07:07.824Z,4.40
2018-12-04T02:09:36.341Z,4.90
2018-12-04T02:12:04.726Z,4.60
2018-12-04T02:14:33.297Z,5.00
2018-12-04T02:17:01.729Z,5.20
2018-12-04T02:19:30.108Z,5.30
2018-12-04T02:22:04.884Z,5.43
2018-12-04T02:24:33.293Z,5.67
2018-12-04T02:27:01.710Z,4.93
2018-12-04T02:29:30.228Z,4.83
2018-12-04T02:31:58.625Z,4.90
2018-12-04T02:34:26.992Z,5.27
2018-12-04T02:36:55.393Z,4.57
2018-12-04T02:39:23.769Z,4.93
2018-12-04T02:41:52.140Z,4.10
2018-12-04T02:44:20.569Z,4.50
2018-12-04T02:46:48.930Z,4.50
2018-12-04T02:49:17.312Z,3.87
2018-12-04T02:51:45.709Z,3.37
2018-12-04T02:54:14.106Z,3.30
2018-12-04T02:56:42.528Z,3.10
2018-12-04T02:59:11.008Z,3.23
2018-12-04T03:01:39.388Z,3.00
2018-12-04T03:04:07.757Z,3.60
2018-12-04T03:06:36.189Z,3.10
2018-12-04T03:09:07.025Z,2.97
2018-12-04T03:11:35.399Z,3.00
2018-12-04T03:14:03.965Z,2.63
2018-12-04T03:16:32.678Z,2.60
2018-12-04T03:19:01.050Z,3.63
2018-12-04T03:21:29.593Z,2.97
2018-12-04T03:23:57.987Z,2.43
2018-12-04T03:26:26.391Z,2.63
2018-12-04T03:28:54.791Z,2.30
2018-12-04T03:31:23.402Z,2.60
2018-12-04T03:33:51.797Z,2.40
2018-12-04T03:36:20.248Z,2.73
2018-12-04T03:38:48.681Z,2.53
2018-12-04T03:41:17.073Z,2.60
2018-12-04T03:43:45.496Z,2.53
2018-12-04T03:46:13.947Z,2.77
2018-12-04T03:48:42.334Z,2.63
2018-12-04T03:51:10.908Z,2.20
2018-12-04T03:53:39.290Z,2.83
2018-12-04T03:56:07.665Z,2.50
2018-12-04T03:58:36.115Z,3.20
2018-12-04T04:01:04.509Z,2.93
2018-12-04T04:03:32.908Z,2.70
2018-12-04T04:06:01.362Z,2.93
2018-12-04T04:08:29.747Z,2.93
2018-12-04T04:10:58.486Z,3.13
2018-12-04T04:13:33.262Z,2.47
2018-12-04T04:16:01.650Z,2.70
2018-12-04T04:18:30.252Z,2.20
2018-12-04T04:20:58.821Z,2.23
2018-12-04T04:23:27.324Z,2.57
2018-12-04T04:25:55.722Z,2.00
2018-12-04T04:28:24.161Z,2.00
2018-12-04T04:30:52.554Z,2.37
2018-12-04T04:33:21.093Z,2.27
2018-12-04T04:35:49.544Z,1.70
2018-12-04T04:38:17.902Z,1.70
2018-12-04T04:40:46.269Z,2.10
2018-12-04T04:43:14.723Z,2.03
2018-12-04T04:45:43.205Z,1.57
2018-12-04T04:48:11.665Z,1.57
2018-12-04T04:50:40.164Z,1.90
2018-12-04T04:53:11.422Z,1.27
2018-12-04T04:55:39.864Z,1.50
2018-12-04T04:58:08.238Z,1.37
2018-12-04T05:00:36.635Z,1.13
2018-12-04T05:03:05.115Z,1.40
2018-12-04T05:05:39.550Z,1.60
2018-12-04T05:08:07.948Z,1.70
2018-12-04T05:10:36.386Z,1.67
2018-12-04T05:13:04.796Z,1.60
2018-12-04T05:15:33.216Z,1.77
2018-12-04T05:18:01.665Z,1.80
2018-12-04T05:20:30.721Z,1.23
2018-12-04T05:22:59.174Z,1.40
2018-12-04T05:25:27.647Z,1.47
2018-12-04T05:27:56.081Z,1.27
2018-12-04T05:30:24.541Z,1.47
2018-12-04T05:32:52.952Z,1.17
2018-12-04T05:35:21.471Z,1.10
2018-12-04T05:37:49.893Z,1.10
2018-12-04T05:40:18.280Z,1.20
2018-12-04T05:42:47.555Z,1.00
2018-12-04T05:45:15.969Z,1.07
2018-12-04T05:47:44.392Z,1.00
2018-12-04T05:50:12.765Z,0.90
2018-12-04T05:52:41.202Z,1.23
2018-12-04T05:55:09.569Z,1.10
2018-12-04T05:57:37.981Z,0.90
2018-12-04T06:00:09.274Z,1.00
2018-12-04T06:02:37.641Z,0.90
2018-12-04T06:05:06.264Z,1.53
2018-12-04T06:07:34.907Z,0.97
2018-12-04T06:10:03.432Z,1.20
2018-12-04T06:12:31.806Z,0.83
2018-12-04T06:15:00.224Z,1.20
2018-12-04T06:17:28.600Z,1.00
2018-12-04T06:19:56.956Z,1.00
2018-12-04T06:22:25.621Z,1.20
2018-12-04T06:24:54.097Z,0.93
2018-12-04T06:27:22.685Z,1.10
2018-12-04T06:29:52.576Z,1.43
2018-12-04T06:32:20.980Z,1.30
2018-12-04T06:34:49.355Z,0.97
2018-12-04T06:37:17.913Z,1.27
2018-12-04T06:39:46.277Z,1.20
2018-12-04T06:42:14.645Z,1.20
2018-12-04T06:44:46.731Z,1.40
2018-12-04T06:47:13.502Z,1.20
2018-12-04T06:49:41.881Z,1.53
2018-12-04T06:52:10.281Z,1.23
2018-12-04T06:54:38.665Z,1.17
2018-12-04T06:57:07.083Z,1.80
2018-12-04T06:59:35.597Z,1.60
2018-12-04T07:02:04.141Z,1.40
2018-12-04T07:04:32.518Z,1.63
2018-12-04T07:07:00.921Z,1.60
2018-12-04T07:09:29.301Z,1.30
2018-12-04T07:12:02.416Z,1.30
2018-12-04T07:14:28.069Z,1.50
2018-12-04T07:16:56.433Z,1.60
2018-12-04T07:19:24.812Z,1.60
2018-12-04T07:21:53.252Z,1.23
2018-12-04T07:24:22.077Z,1.13
2018-12-04T07:26:51.140Z,1.20
2018-12-04T07:29:19.590Z,1.30
2018-12-04T07:31:48.145Z,1.23
2018-12-04T07:34:16.576Z,1.40
2018-12-04T07:36:44.973Z,1.30
2018-12-04T07:39:13.640Z,1.43
2018-12-04T07:41:42.115Z,1.60
2018-12-04T07:44:10.601Z,1.50
2018-12-04T07:46:38.965Z,1.40
2018-12-04T07:49:07.357Z,1.50
2018-12-04T07:51:35.754Z,1.47
2018-12-04T07:54:04.144Z,1.40
2018-12-04T07:56:32.533Z,1.30
2018-12-04T07:59:00.975Z,1.30
2018-12-04T08:01:29.376Z,1.03
2018-12-04T08:03:57.809Z,1.00
2018-12-04T08:06:26.200Z,1.30
2018-12-04T08:08:54.840Z,1.37
2018-12-04T08:11:23.213Z,0.97
2018-12-04T08:13:51.657Z,1.53
2018-12-04T08:16:20.064Z,1.30
2018-12-04T08:18:48.444Z,1.10
2018-12-04T08:21:16.888Z,1.20
2018-12-04T08:23:45.249Z,1.17
2018-12-04T08:26:13.765Z,1.27
2018-12-04T08:28:42.174Z,1.93
2018-12-04T08:31:10.557Z,1.30
2018-12-04T08:33:38.926Z,1.30
2018-12-04T08:36:07.345Z,1.50
2018-12-04T08:38:35.721Z,1.50
2018-12-04T08:41:04.721Z,1.13
2018-12-04T08:43:33.170Z,1.43
2018-12-04T08:46:01.643Z,1.30
2018-12-04T08:48:30.039Z,1.77
2018-12-04T08:50:58.456Z,1.53
2018-12-04T08:53:26.836Z,1.83
2018-12-04T08:55:55.225Z,1.40
2018-12-04T08:58:23.645Z,1.57
2018-12-04T09:00:52.165Z,1.20
2018-12-04T09:03:20.596Z,1.33
2018-12-04T09:05:49.340Z,1.30
2018-12-04T09:08:17.704Z,1.40
2018-12-04T09:10:46.076Z,1.07
2018-12-04T09:13:14.529Z,1.40
2018-12-04T09:15:42.924Z,1.60
2018-12-04T09:18:11.429Z,2.40
2018-12-04T09:20:39.913Z,1.97
2018-12-04T09:23:08.440Z,1.57
2018-12-04T09:25:36.885Z,1.13
2018-12-04T09:28:05.644Z,1.80
2018-12-04T09:30:34.045Z,1.97
2018-12-04T09:33:02.421Z,2.20
2018-12-04T09:35:30.841Z,2.00
2018-12-04T09:37:59.231Z,1.33
2018-12-04T09:40:27.741Z,1.67
2018-12-04T09:42:56.289Z,1.20
2018-12-04T09:45:25.278Z,1.97
2018-12-04T09:47:53.688Z,1.30
2018-12-04T09:50:22.084Z,1.50
2018-12-04T09:52:50.452Z,1.20
2018-12-04T09:55:18.817Z,1.00
2018-12-04T09:57:47.368Z,0.83
2018-12-04T10:00:15.880Z,1.03
2018-12-04T10:02:44.253Z,1.10
2018-12-04T10:05:12.675Z,1.17
2018-12-04T10:07:41.117Z,1.10
2018-12-04T10:10:09.766Z,1.07
2018-12-04T10:12:38.197Z,1.07
2018-12-04T10:15:07.439Z,1.00
2018-12-04T10:17:35.843Z,0.90
2018-12-04T10:20:06.161Z,0.90
2018-12-04T10:22:34.541Z,1.37
2018-12-04T10:25:02.921Z,1.20
2018-12-04T10:27:31.353Z,1.30
2018-12-04T10:30:00.384Z,1.60
2018-12-04T10:32:28.818Z,1.00
2018-12-04T10:34:57.397Z,2.43
2018-12-04T10:37:25.765Z,1.83
2018-12-04T10:39:54.145Z,1.93
2018-12-04T10:42:22.537Z,1.50
2018-12-04T10:44:51.149Z,1.87
2018-12-04T10:47:19.968Z,1.80
2018-12-04T10:49:48.429Z,1.67
2018-12-04T10:52:16.976Z,1.20
2018-12-04T10:54:45.359Z,1.13
2018-12-04T10:57:13.778Z,1.77
2018-12-04T10:59:42.161Z,1.23
2018-12-04T11:02:15.681Z,1.47
2018-12-04T11:04:44.479Z,1.47
2018-12-04T11:07:12.875Z,0.97
2018-12-04T11:09:41.308Z,0.90
2018-12-04T11:12:12.282Z,0.97
2018-12-04T11:14:40.093Z,1.03
2018-12-04T11:17:08.807Z,0.97
2018-12-04T11:19:37.169Z,0.90
2018-12-04T11:22:05.668Z,1.37
2018-12-04T11:24:34.278Z,1.17
2018-12-04T11:27:02.713Z,0.83
2018-12-04T11:29:31.564Z,0.93
2018-12-04T11:32:00.165Z,0.83
2018-12-04T11:34:28.629Z,1.47
2018-12-04T11:36:59.045Z,0.90
2018-12-04T11:39:27.501Z,1.30
2018-12-04T11:41:55.938Z,1.00
2018-12-04T11:44:24.321Z,1.70
2018-12-04T11:46:53.020Z,1.77
2018-12-04T11:49:21.389Z,1.20
2018-12-04T11:51:49.823Z,1.23
2018-12-04T11:54:18.223Z,1.17
2018-12-04T11:56:46.588Z,1.10
2018-12-04T11:59:15.268Z,0.93
2018-12-04T12:01:43.666Z,1.03
2018-12-04T12:04:12.043Z,1.40
2018-12-04T12:06:40.607Z,0.93
2018-12-04T12:09:10.577Z,0.70
2018-12-04T12:11:38.950Z,0.80
2018-12-04T12:14:07.342Z,0.70
2018-12-04T12:16:35.745Z,0.87
2018-12-04T12:19:04.127Z,0.80
2018-12-04T12:21:32.690Z,0.90
2018-12-04T12:24:01.117Z,0.70
2018-12-04T12:26:29.553Z,0.50
2018-12-04T12:28:58.188Z,0.60
2018-12-04T12:31:26.685Z,1.23
2018-12-04T12:33:55.204Z,0.70
2018-12-04T12:36:23.582Z,0.70
2018-12-04T12:38:52.353Z,0.60
2018-12-04T12:41:20.744Z,0.50
2018-12-04T12:43:49.424Z,0.40
2018-12-04T12:46:17.805Z,0.33
2018-12-04T12:48:46.348Z,0.40
2018-12-04T12:51:14.733Z,0.50
2018-12-04T12:53:43.160Z,0.20
2018-12-04T12:56:11.909Z,0.30
2018-12-04T12:58:40.281Z,0.40
2018-12-04T13:01:08.887Z,0.70
2018-12-04T13:03:37.278Z,0.70
2018-12-04T13:06:05.692Z,0.40
2018-12-04T13:08:34.236Z,0.40
2018-12-04T13:11:02.613Z,0.70
2018-12-04T13:13:36.755Z,0.47
2018-12-04T13:16:01.497Z,0.60
2018-12-04T13:18:29.883Z,0.40
2018-12-04T13:20:58.260Z,0.50
2018-12-04T13:23:26.707Z,0.50
2018-12-04T13:25:55.160Z,0.57
2018-12-04T13:28:23.617Z,0.40
2018-12-04T13:30:52.063Z,0.40
2018-12-04T13:33:20.662Z,0.40
2018-12-04T13:35:49.043Z,0.60
2018-12-04T13:38:17.549Z,0.60
2018-12-04T13:40:46.082Z,0.70
2018-12-04T13:43:14.531Z,0.60
2018-12-04T13:45:43.506Z,0.50
2018-12-04T13:48:11.913Z,0.60
2018-12-04T13:50:40.623Z,0.50
2018-12-04T13:53:09.036Z,0.50
2018-12-04T13:55:37.413Z,0.60
2018-12-04T13:58:05.990Z,0.50
2018-12-04T14:00:34.421Z,1.27
2018-12-04T14:03:02.884Z,0.50
2018-12-04T14:05:31.238Z,0.30
2018-12-04T14:07:59.653Z,0.40
2018-12-04T14:10:28.349Z,0.30
2018-12-04T14:12:56.749Z,0.50
2018-12-04T14:15:25.597Z,0.60
2018-12-04T14:17:53.957Z,0.40
2018-12-04T14:20:22.504Z,0.80
2018-12-04T14:22:51.067Z,0.30
2018-12-04T14:25:19.441Z,0.37
2018-12-04T14:27:49.193Z,0.40
2018-12-04T14:30:17.985Z,0.40
2018-12-04T14:32:46.664Z,0.37
2018-12-04T14:35:15.056Z,0.30
2018-12-04T14:37:43.495Z,0.30
2018-12-04T14:40:11.879Z,0.40
2018-12-04T14:42:40.662Z,0.43
2018-12-04T14:45:09.237Z,0.60
2018-12-04T14:47:39.014Z,0.40
2018-12-04T14:50:09.278Z,0.33
2018-12-04T14:52:37.847Z,0.20
2018-12-04T14:55:07.391Z,0.20
2018-12-04T14:57:35.833Z,0.40
2018-12-04T15:00:06.367Z,0.30
2018-12-04T15:02:35.253Z,0.30
2018-12-04T15:05:03.901Z,0.30
2018-12-04T15:07:32.389Z,0.30
2018-12-04T15:10:00.948Z,0.30
2018-12-04T15:12:29.366Z,0.40
2018-12-04T15:14:57.730Z,0.30
2018-12-04T15:17:26.169Z,0.40
2018-12-04T15:19:54.812Z,0.40
2018-12-04T15:22:23.306Z,0.17
2018-12-04T15:24:51.961Z,0.20
2018-12-04T15:27:20.486Z,0.40
2018-12-04T15:29:48.888Z,0.50
2018-12-04T15:32:17.262Z,0.40
2018-12-04T15:34:45.715Z,0.30
2018-12-04T15:37:14.385Z,0.50
2018-12-04T15:39:42.988Z,0.60
2018-12-04T15:42:11.750Z,0.60
2018-12-04T15:44:40.592Z,0.50
2018-12-04T15:47:09.117Z,0.40
2018-12-04T15:49:37.651Z,0.37
2018-12-04T15:52:06.140Z,0.67
2018-12-04T15:54:34.774Z,0.40
2018-12-04T15:57:03.256Z,0.40
2018-12-04T15:59:31.647Z,0.70
2018-12-04T16:02:00.033Z,0.77
2018-12-04T16:04:28.461Z,0.80
2018-12-04T16:06:56.827Z,0.97
2018-12-04T16:09:25.221Z,0.80
2018-12-04T16:11:53.662Z,1.20
2018-12-04T16:14:22.057Z,1.20
2018-12-04T16:16:50.506Z,0.97
2018-12-04T16:19:19.071Z,0.90
2018-12-04T16:21:47.450Z,0.80
2018-12-04T16:24:15.832Z,0.80
2018-12-04T16:26:44.346Z,0.77
2018-12-04T16:29:12.852Z,1.07
2018-12-04T16:31:41.239Z,0.80
2018-12-04T16:34:09.731Z,0.83
2018-12-04T16:36:38.133Z,0.90
2018-12-04T16:39:08.621Z,0.77
2018-12-04T16:41:37.043Z,0.80
2018-12-04T16:44:05.592Z,0.60
2018-12-04T16:46:34.687Z,0.70
2018-12-04T16:49:09.335Z,0.73
2018-12-04T16:51:37.713Z,0.77
2018-12-04T16:54:06.074Z,0.60
2018-12-04T16:56:34.680Z,0.80
2018-12-04T16:59:03.080Z,0.70
2018-12-04T17:01:31.648Z,0.63
2018-12-04T17:04:00.081Z,0.50
2018-12-04T17:06:28.495Z,0.40
2018-12-04T17:08:56.886Z,0.70
2018-12-04T17:11:25.285Z,0.30
2018-12-04T17:13:53.634Z,0.40
2018-12-04T17:16:22.017Z,0.40
2018-12-04T17:18:50.568Z,0.40
2018-12-04T17:21:18.934Z,0.47
2018-12-04T17:23:47.415Z,0.47
2018-12-04T17:26:15.949Z,0.50
2018-12-04T17:28:44.341Z,0.50
2018-12-04T17:31:13.029Z,0.40
2018-12-04T17:33:41.457Z,0.40
2018-12-04T17:36:09.836Z,0.40
2018-12-04T17:38:38.221Z,0.20
2018-12-04T17:41:06.613Z,0.47
2018-12-04T17:43:35.317Z,0.40
2018-12-04T17:46:03.695Z,0.50
2018-12-04T17:48:32.301Z,0.70
2018-12-04T17:51:00.701Z,0.50
2018-12-04T17:53:29.220Z,0.87
2018-12-04T17:55:57.625Z,0.37
2018-12-04T17:58:26.174Z,0.40
2018-12-04T18:00:54.584Z,0.50
2018-12-04T18:03:29.381Z,0.30
2018-12-04T18:05:57.948Z,0.40
2018-12-04T18:08:27.417Z,0.33
2018-12-04T18:10:55.813Z,0.27
2018-12-04T18:13:24.298Z,0.30
2018-12-04T18:15:52.669Z,0.33
2018-12-04T18:18:21.113Z,0.47
2018-12-04T18:20:49.543Z,0.40
2018-12-04T18:23:17.965Z,0.30
2018-12-04T18:25:46.428Z,0.30
2018-12-04T18:28:14.856Z,0.40
2018-12-04T18:30:43.230Z,0.40
2018-12-04T18:33:11.653Z,0.50
2018-12-04T18:35:40.028Z,0.47
2018-12-04T18:38:08.434Z,0.40
2018-12-04T18:40:36.889Z,0.20
2018-12-04T18:43:05.307Z,0.23
2018-12-04T18:45:34.041Z,0.30
2018-12-04T18:48:02.607Z,0.20
2018-12-04T18:50:31.097Z,0.20
2018-12-04T18:52:59.496Z,0.20
2018-12-04T18:55:28.018Z,0.20
2018-12-04T18:57:56.394Z,0.20
2018-12-04T19:00:24.926Z,0.17
2018-12-04T19:02:54.472Z,0.30
2018-12-04T19:05:22.861Z,0.40
2018-12-04T19:07:51.291Z,0.40
2018-12-04T19:10:20.081Z,0.60
2018-12-04T19:12:48.452Z,0.60
2018-12-04T19:15:17.047Z,0.57
2018-12-04T19:17:45.516Z,0.50
2018-12-04T19:20:20.354Z,0.40
2018-12-04T19:22:48.823Z,0.40
2018-12-04T19:25:17.350Z,0.70
2018-12-04T19:27:45.732Z,0.67
2018-12-04T19:30:15.500Z,1.37
2018-12-04T19:32:43.880Z,0.53
2018-12-04T19:35:13.542Z,0.30
2018-12-04T19:37:41.981Z,4.57
2018-12-04T19:40:11.883Z,0.70
2018-12-04T19:42:44.013Z,1.00
2018-12-04T19:45:13.140Z,0.90
2018-12-04T19:47:41.636Z,0.80
2018-12-04T19:50:10.733Z,0.87
2018-12-04T19:52:39.301Z,0.60
2018-12-04T19:55:08.091Z,0.60
2018-12-04T19:57:36.599Z,0.70
2018-12-04T20:00:06.818Z,1.00
2018-12-04T20:02:35.498Z,0.70
2018-12-04T20:05:04.065Z,0.63
2018-12-04T20:07:32.461Z,0.60
2018-12-04T20:10:00.879Z,0.50
2018-12-04T20:12:29.313Z,0.80
2018-12-04T20:14:57.685Z,0.60
2018-12-04T20:17:26.069Z,0.40
2018-12-04T20:19:54.507Z,0.40
2018-12-04T20:22:22.912Z,0.50
2018-12-04T20:24:51.401Z,0.53
2018-12-04T20:27:20.153Z,0.80
2018-12-04T20:29:48.700Z,0.70
2018-12-04T20:32:17.112Z,0.47
2018-12-04T20:34:45.540Z,0.60
2018-12-04T20:37:13.940Z,0.63
2018-12-04T20:39:42.331Z,0.53
2018-12-04T20:42:10.767Z,0.70
2018-12-04T20:44:39.278Z,1.00
2018-12-04T20:47:07.638Z,0.50
2018-12-04T20:49:36.301Z,0.50
2018-12-04T20:52:04.793Z,0.40
2018-12-04T20:54:33.616Z,0.50
2018-12-04T20:57:02.230Z,0.30
2018-12-04T20:59:30.694Z,0.50
2018-12-04T21:01:59.088Z,0.47
2018-12-04T21:04:27.640Z,0.43
2018-12-04T21:06:56.016Z,0.30
2018-12-04T21:09:24.525Z,0.80
2018-12-04T21:11:52.938Z,0.40
2018-12-04T21:14:21.448Z,0.20
2018-12-04T21:16:49.992Z,0.20
2018-12-04T21:19:18.434Z,0.33
2018-12-04T21:21:46.940Z,0.37
2018-12-04T21:24:15.493Z,0.50
2018-12-04T21:26:43.941Z,0.40
2018-12-04T21:29:17.981Z,0.40
2018-12-04T21:31:51.762Z,0.20
2018-12-04T21:34:25.739Z,0.23
2018-12-04T21:36:59.396Z,0.23
2018-12-04T21:39:32.855Z,0.20
2018-12-04T21:42:05.429Z,1.00
2018-12-04T21:44:39.053Z,0.10
2018-12-04T21:47:12.605Z,0.30
2018-12-04T21:49:40.969Z,0.30
2018-12-04T21:52:09.338Z,0.50
2018-12-04T21:54:37.806Z,0.27
2018-12-04T21:57:06.318Z,0.30
2018-12-04T21:59:34.704Z,0.30
2018-12-04T22:02:03.146Z,0.20
2018-12-04T22:04:31.784Z,0.30
2018-12-04T22:07:00.159Z,1.30
2018-12-04T22:09:28.585Z,0.30
2018-12-04T22:11:56.970Z,0.20
2018-12-04T22:14:25.524Z,0.20
2018-12-04T22:16:53.971Z,0.30
2018-12-04T22:19:22.379Z,0.20
2018-12-04T22:21:51.208Z,0.30
2018-12-04T22:24:19.626Z,0.13
2018-12-04T22:26:48.017Z,0.20
2018-12-04T22:29:16.421Z,0.30
2018-12-04T22:31:44.976Z,0.30
2018-12-04T22:34:13.373Z,0.30
2018-12-04T22:36:41.758Z,0.27
2018-12-04T22:39:10.748Z,0.30
2018-12-04T22:41:39.152Z,0.20
2018-12-04T22:44:07.739Z,0.37
2018-12-04T22:46:36.152Z,0.73
2018-12-04T22:49:05.032Z,0.10
2018-12-04T22:51:33.439Z,0.10
2018-12-04T22:54:01.845Z,0.30
2018-12-04T22:56:30.243Z,0.13
2018-12-04T22:58:58.616Z,0.20
2018-12-04T23:01:43.893Z,0.30
2018-12-04T23:04:12.289Z,0.10
2018-12-04T23:06:41.013Z,0.30
2018-12-04T23:09:11.013Z,0.10
2018-12-04T23:11:40.066Z,0.20
2018-12-04T23:14:08.630Z,0.20
2018-12-04T23:16:37.078Z,0.20
2018-12-04T23:19:05.614Z,0.30
2018-12-04T23:21:34.010Z,0.20
2018-12-04T23:24:02.467Z,0.40
2018-12-04T23:26:30.924Z,0.10
2018-12-04T23:28:59.304Z,0.20
2018-12-04T23:31:27.726Z,0.10
2018-12-04T23:33:56.499Z,0.30
2018-12-04T23:36:24.888Z,0.30
2018-12-04T23:38:53.305Z,0.20
2018-12-04T23:41:21.674Z,0.40
2018-12-04T23:43:50.492Z,0.23
2018-12-04T23:46:19.373Z,0.30
2018-12-04T23:48:47.990Z,0.20
2018-12-04T23:51:16.373Z,0.20
2018-12-04T23:53:44.800Z,0.40
2018-12-04T23:56:13.208Z,0.30
2018-12-04T23:58:41.744Z,0.30
